Oktaha, Oklahoma
Current Conditions -  °F | °C
As of 8:53 PM on Tuesday 25 Nov 2014 (Local Time) from KMKO Reporting Station
Clear Clear  
Wind Chill: 33°   Ceiling: Unl
Heat Index: 38°   Visibility: 10mi
Dew Point: 27°   Wind: 7mph
Humidity: 65%   Direction: 160°SSE
Pressure: 30.14"   Gusts: NA
Location:  35.58°N, 95.47°W
Report Text: KMKO 260253Z AUTO 16006KT 10SM CLR 03/M03 A3014 RMK AO2 SLP209 T00331028 56005
Loading
Personal Weather Stations






























Interactive Weather Map New forecast layout! Learn more

10-Day Weather Forecast

Advertisements
Track Severe Weather on mobile